sensor_id;sensor_type;location;lat;lon;timestamp;pressure;altitude;pressure_sealevel;temperature;humidity
32081;BME280;18593;51.426;7.030;2023-07-02T00:00:11;99686.63;;;18.87;68.27
32081;BME280;18593;51.426;7.030;2023-07-02T00:02:38;99679.63;;;18.86;68.12
32081;BME280;18593;51.426;7.030;2023-07-02T00:05:06;99677.72;;;18.87;68.24
32081;BME280;18593;51.426;7.030;2023-07-02T00:07:35;99685.03;;;18.86;68.18
32081;BME280;18593;51.426;7.030;2023-07-02T00:10:04;99688.22;;;18.88;68.10
32081;BME280;18593;51.426;7.030;2023-07-02T00:12:31;99688.28;;;18.83;68.29
32081;BME280;18593;51.426;7.030;2023-07-02T00:15:00;99685.59;;;18.83;68.20
32081;BME280;18593;51.426;7.030;2023-07-02T00:17:27;99689.63;;;18.86;68.00
32081;BME280;18593;51.426;7.030;2023-07-02T00:19:54;99688.03;;;18.85;67.96
32081;BME280;18593;51.426;7.030;2023-07-02T00:22:21;99689.13;;;18.78;68.36
32081;BME280;18593;51.426;7.030;2023-07-02T00:24:50;99688.88;;;18.80;68.01
32081;BME280;18593;51.426;7.030;2023-07-02T00:27:21;99684.03;;;18.77;68.05
32081;BME280;18593;51.426;7.030;2023-07-02T00:29:48;99678.31;;;18.78;67.83
32081;BME280;18593;51.426;7.030;2023-07-02T00:32:16;99682.13;;;18.77;67.76
32081;BME280;18593;51.426;7.030;2023-07-02T00:34:43;99688.06;;;18.80;67.85
32081;BME280;18593;51.426;7.030;2023-07-02T00:37:10;99682.38;;;18.81;67.93
32081;BME280;18593;51.426;7.030;2023-07-02T00:39:38;99677.78;;;18.82;67.67
32081;BME280;18593;51.426;7.030;2023-07-02T00:42:06;99680.78;;;18.80;67.57
32081;BME280;18593;51.426;7.030;2023-07-02T00:44:37;99677.53;;;18.78;67.60
32081;BME280;18593;51.426;7.030;2023-07-02T00:47:07;99681.91;;;18.74;67.77
32081;BME280;18593;51.426;7.030;2023-07-02T00:49:34;99677.31;;;18.74;67.46
32081;BME280;18593;51.426;7.030;2023-07-02T00:52:02;99675.41;;;18.75;67.63
32081;BME280;18593;51.426;7.030;2023-07-02T00:54:30;99684.38;;;18.70;67.22
32081;BME280;18593;51.426;7.030;2023-07-02T00:56:58;99680.56;;;18.71;67.17
32081;BME280;18593;51.426;7.030;2023-07-02T00:59:29;99678.16;;;18.70;67.38
32081;BME280;18593;51.426;7.030;2023-07-02T01:01:57;99683.81;;;18.68;67.50
32081;BME280;18593;51.426;7.030;2023-07-02T01:04:24;99674.38;;;18.66;67.15
32081;BME280;18593;51.426;7.030;2023-07-02T01:06:53;99667.63;;;18.63;67.12
32081;BME280;18593;51.426;7.030;2023-07-02T01:09:24;99662.81;;;18.60;67.13
32081;BME280;18593;51.426;7.030;2023-07-02T01:11:56;99667.97;;;18.57;66.89
32081;BME280;18593;51.426;7.030;2023-07-02T01:14:28;99668.53;;;18.53;66.80
32081;BME280;18593;51.426;7.030;2023-07-02T01:16:57;99661.03;;;18.50;67.33
32081;BME280;18593;51.426;7.030;2023-07-02T01:19:45;99665.56;;;18.55;67.31
32081;BME280;18593;51.426;7.030;2023-07-02T01:22:18;99660.97;;;18.56;67.03
32081;BME280;18593;51.426;7.030;2023-07-02T01:24:46;99656.13;;;18.52;66.83
32081;BME280;18593;51.426;7.030;2023-07-02T01:27:15;99647.06;;;18.38;66.66
32081;BME280;18593;51.426;7.030;2023-07-02T01:29:43;99635.50;;;18.33;66.91
32081;BME280;18593;51.426;7.030;2023-07-02T01:32:13;99643.31;;;18.34;66.67
32081;BME280;18593;51.426;7.030;2023-07-02T01:34:42;99647.41;;;18.32;66.96
32081;BME280;18593;51.426;7.030;2023-07-02T01:37:09;99640.66;;;18.29;67.04
32081;BME280;18593;51.426;7.030;2023-07-02T01:39:37;99639.59;;;18.30;66.59
32081;BME280;18593;51.426;7.030;2023-07-02T01:42:10;99649.84;;;18.28;66.87
32081;BME280;18593;51.426;7.030;2023-07-02T01:44:38;99665.50;;;18.31;66.63
32081;BME280;18593;51.426;7.030;2023-07-02T01:47:06;99669.56;;;18.28;66.70
32081;BME280;18593;51.426;7.030;2023-07-02T01:49:33;99684.66;;;18.30;66.58
32081;BME280;18593;51.426;7.030;2023-07-02T01:52:03;99685.50;;;18.30;66.91
32081;BME280;18593;51.426;7.030;2023-07-02T01:54:32;99683.84;;;18.29;66.74
32081;BME280;18593;51.426;7.030;2023-07-02T01:57:00;99684.94;;;18.28;66.84
32081;BME280;18593;51.426;7.030;2023-07-02T01:59:27;99684.97;;;18.23;66.85
32081;BME280;18593;51.426;7.030;2023-07-02T02:01:54;99684.44;;;18.26;66.73
32081;BME280;18593;51.426;7.030;2023-07-02T02:04:21;99679.03;;;18.26;66.65
32081;BME280;18593;51.426;7.030;2023-07-02T02:06:49;99679.03;;;18.26;66.75
32081;BME280;18593;51.426;7.030;2023-07-02T02:09:19;99689.84;;;18.26;66.22
32081;BME280;18593;51.426;7.030;2023-07-02T02:11:49;99689.03;;;18.25;66.02
32081;BME280;18593;51.426;7.030;2023-07-02T02:14:18;99695.31;;;18.16;65.46
32081;BME280;18593;51.426;7.030;2023-07-02T02:16:45;99698.84;;;18.11;65.65
32081;BME280;18593;51.426;7.030;2023-07-02T02:19:13;99700.16;;;18.14;65.95
32081;BME280;18593;51.426;7.030;2023-07-02T02:21:41;99700.69;;;18.16;65.67
32081;BME280;18593;51.426;7.030;2023-07-02T02:24:09;99701.22;;;18.18;65.34
32081;BME280;18593;51.426;7.030;2023-07-02T02:26:38;99705.81;;;18.17;65.17
32081;BME280;18593;51.426;7.030;2023-07-02T02:29:05;99711.50;;;18.16;65.21
32081;BME280;18593;51.426;7.030;2023-07-02T02:31:32;99707.72;;;18.17;65.05
32081;BME280;18593;51.426;7.030;2023-07-02T02:34:01;99704.47;;;18.15;64.87
32081;BME280;18593;51.426;7.030;2023-07-02T02:36:28;99702.31;;;18.17;64.80
32081;BME280;18593;51.426;7.030;2023-07-02T02:38:55;99706.31;;;18.19;64.51
32081;BME280;18593;51.426;7.030;2023-07-02T02:41:24;99712.00;;;18.18;64.67
32081;BME280;18593;51.426;7.030;2023-07-02T02:43:54;99708.50;;;18.17;64.93
32081;BME280;18593;51.426;7.030;2023-07-02T02:46:23;99705.28;;;18.15;64.42
32081;BME280;18593;51.426;7.030;2023-07-02T02:48:50;99708.53;;;18.12;64.43
32081;BME280;18593;51.426;7.030;2023-07-02T02:51:18;99708.25;;;18.14;64.56
32081;BME280;18593;51.426;7.030;2023-07-02T02:53:45;99699.06;;;18.15;64.72
32081;BME280;18593;51.426;7.030;2023-07-02T02:56:13;99703.94;;;18.13;64.24
32081;BME280;18593;51.426;7.030;2023-07-02T02:58:40;99702.09;;;18.08;64.44
32081;BME280;18593;51.426;7.030;2023-07-02T03:01:09;99705.63;;;18.04;64.50
32081;BME280;18593;51.426;7.030;2023-07-02T03:03:38;99705.72;;;17.88;64.56
32081;BME280;18593;51.426;7.030;2023-07-02T03:06:06;99704.03;;;17.97;64.55
32081;BME280;18593;51.426;7.030;2023-07-02T03:08:33;99706.44;;;18.04;64.71
32081;BME280;18593;51.426;7.030;2023-07-02T03:11:01;99709.09;;;18.09;64.50
32081;BME280;18593;51.426;7.030;2023-07-02T03:13:28;99718.78;;;18.10;64.93
32081;BME280;18593;51.426;7.030;2023-07-02T03:15:55;99716.63;;;18.12;64.32
32081;BME280;18593;51.426;7.030;2023-07-02T03:18:24;99721.75;;;18.14;64.33
32081;BME280;18593;51.426;7.030;2023-07-02T03:20:51;99726.38;;;18.08;64.56
32081;BME280;18593;51.426;7.030;2023-07-02T03:23:18;99724.19;;;18.10;64.46
32081;BME280;18593;51.426;7.030;2023-07-02T03:25:45;99728.25;;;18.13;64.14
32081;BME280;18593;51.426;7.030;2023-07-02T03:28:12;99735.00;;;18.05;64.02
32081;BME280;18593;51.426;7.030;2023-07-02T03:30:40;99730.97;;;18.08;64.34
32081;BME280;18593;51.426;7.030;2023-07-02T03:33:08;99727.72;;;18.11;64.46
32081;BME280;18593;51.426;7.030;2023-07-02T03:35:37;99739.31;;;18.11;64.40
32081;BME280;18593;51.426;7.030;2023-07-02T03:38:04;99732.28;;;18.10;64.46
32081;BME280;18593;51.426;7.030;2023-07-02T03:40:32;99737.47;;;18.07;64.81
32081;BME280;18593;51.426;7.030;2023-07-02T03:42:59;99745.56;;;18.07;64.26
32081;BME280;18593;51.426;7.030;2023-07-02T03:45:26;99752.28;;;18.09;64.45
32081;BME280;18593;51.426;7.030;2023-07-02T03:47:53;99757.13;;;18.12;64.44
32081;BME280;18593;51.426;7.030;2023-07-02T03:50:20;99750.16;;;18.06;64.02
32081;BME280;18593;51.426;7.030;2023-07-02T03:52:49;99750.94;;;18.07;64.13
32081;BME280;18593;51.426;7.030;2023-07-02T03:55:16;99756.56;;;18.10;64.33
32081;BME280;18593;51.426;7.030;2023-07-02T03:57:44;99756.56;;;18.10;64.61
32081;BME280;18593;51.426;7.030;2023-07-02T04:00:12;99761.97;;;18.10;64.66
32081;BME280;18593;51.426;7.030;2023-07-02T04:02:42;99761.16;;;18.10;64.13
32081;BME280;18593;51.426;7.030;2023-07-02T04:05:09;99773.06;;;18.09;64.42
32081;BME280;18593;51.426;7.030;2023-07-02T04:07:36;99773.41;;;17.97;64.43
32081;BME280;18593;51.426;7.030;2023-07-02T04:10:07;99774.22;;;17.92;64.82
32081;BME280;18593;51.426;7.030;2023-07-02T04:12:34;99777.69;;;17.98;64.87
32081;BME280;18593;51.426;7.030;2023-07-02T04:15:02;99775.25;;;18.01;64.63
32081;BME280;18593;51.426;7.030;2023-07-02T04:17:29;99781.72;;;18.06;64.95
32081;BME280;18593;51.426;7.030;2023-07-02T04:20:00;99786.06;;;18.01;64.67
32081;BME280;18593;51.426;7.030;2023-07-02T04:22:29;99783.06;;;18.03;64.38
32081;BME280;18593;51.426;7.030;2023-07-02T04:24:56;99793.06;;;18.02;64.90
32081;BME280;18593;51.426;7.030;2023-07-02T04:27:25;99787.94;;;18.06;64.61
32081;BME280;18593;51.426;7.030;2023-07-02T04:29:54;99786.84;;;18.07;64.66
32081;BME280;18593;51.426;7.030;2023-07-02T04:32:21;99796.81;;;18.07;65.20
32081;BME280;18593;51.426;7.030;2023-07-02T04:34:48;99800.34;;;18.07;65.00
32081;BME280;18593;51.426;7.030;2023-07-02T04:37:16;99796.28;;;18.05;64.65
32081;BME280;18593;51.426;7.030;2023-07-02T04:39:43;99804.94;;;18.07;65.00
32081;BME280;18593;51.426;7.030;2023-07-02T04:42:10;99796.53;;;18.08;64.88
32081;BME280;18593;51.426;7.030;2023-07-02T04:44:42;99810.56;;;18.05;64.81
32081;BME280;18593;51.426;7.030;2023-07-02T04:47:10;99801.69;;;18.05;64.96
32081;BME280;18593;51.426;7.030;2023-07-02T04:49:37;99811.41;;;18.06;64.80
32081;BME280;18593;51.426;7.030;2023-07-02T04:52:05;99816.81;;;18.06;65.25
32081;BME280;18593;51.426;7.030;2023-07-02T04:54:32;99810.03;;;18.08;65.06
32081;BME280;18593;51.426;7.030;2023-07-02T04:56:59;99809.22;;;18.13;64.89
32081;BME280;18593;51.426;7.030;2023-07-02T04:59:26;99810.00;;;18.13;65.29
32081;BME280;18593;51.426;7.030;2023-07-02T05:01:55;99815.94;;;18.15;65.22
32081;BME280;18593;51.426;7.030;2023-07-02T05:04:22;99815.09;;;18.20;64.97
32081;BME280;18593;51.426;7.030;2023-07-02T05:06:49;99822.94;;;18.21;64.81
32081;BME280;18593;51.426;7.030;2023-07-02T05:09:16;99812.91;;;18.27;64.78
32081;BME280;18593;51.426;7.030;2023-07-02T05:11:44;99814.50;;;18.33;65.43
32081;BME280;18593;51.426;7.030;2023-07-02T05:14:11;99817.16;;;18.38;65.25
32081;BME280;18593;51.426;7.030;2023-07-02T05:16:38;99830.63;;;18.43;64.91
32081;BME280;18593;51.426;7.030;2023-07-02T05:19:07;99824.84;;;18.65;65.03
32081;BME280;18593;51.426;7.030;2023-07-02T05:21:34;99825.56;;;18.81;64.19
32081;BME280;18593;51.426;7.030;2023-07-02T05:24:01;99814.22;;;18.84;64.14
32081;BME280;18593;51.426;7.030;2023-07-02T05:26:28;99830.16;;;18.81;64.05
32081;BME280;18593;51.426;7.030;2023-07-02T05:28:55;99826.09;;;18.83;64.38
32081;BME280;18593;51.426;7.030;2023-07-02T05:31:23;99834.09;;;18.93;63.52
32081;BME280;18593;51.426;7.030;2023-07-02T05:33:50;99823.38;;;18.83;63.56
32081;BME280;18593;51.426;7.030;2023-07-02T05:36:18;99829.63;;;18.78;64.08
32081;BME280;18593;51.426;7.030;2023-07-02T05:38:46;99834.78;;;18.80;64.42
32081;BME280;18593;51.426;7.030;2023-07-02T05:41:18;99833.13;;;18.84;64.54
32081;BME280;18593;51.426;7.030;2023-07-02T05:43:45;99833.31;;;18.93;64.64
32081;BME280;18593;51.426;7.030;2023-07-02T05:46:13;99836.28;;;18.91;63.94
32081;BME280;18593;51.426;7.030;2023-07-02T05:48:41;99845.53;;;18.85;64.16
32081;BME280;18593;51.426;7.030;2023-07-02T05:51:08;99846.56;;;18.94;64.38
32081;BME280;18593;51.426;7.030;2023-07-02T05:53:37;99849.09;;;19.15;64.23
32081;BME280;18593;51.426;7.030;2023-07-02T05:56:04;99850.06;;;19.29;63.70
32081;BME280;18593;51.426;7.030;2023-07-02T05:58:32;99860.81;;;19.34;63.63
32081;BME280;18593;51.426;7.030;2023-07-02T06:00:59;99855.97;;;19.31;62.20
32081;BME280;18593;51.426;7.030;2023-07-02T06:03:27;99868.19;;;19.28;63.14
32081;BME280;18593;51.426;7.030;2023-07-02T06:05:54;99864.13;;;19.26;62.69
32081;BME280;18593;51.426;7.030;2023-07-02T06:08:21;99867.28;;;19.38;62.85
32081;BME280;18593;51.426;7.030;2023-07-02T06:10:50;99866.13;;;19.44;62.94
32081;BME280;18593;51.426;7.030;2023-07-02T06:13:17;99861.19;;;19.51;61.58
32081;BME280;18593;51.426;7.030;2023-07-02T06:15:44;99868.22;;;19.52;62.12
32081;BME280;18593;51.426;7.030;2023-07-02T06:18:13;99871.19;;;19.51;62.04
32081;BME280;18593;51.426;7.030;2023-07-02T06:20:40;99874.16;;;19.54;61.79
32081;BME280;18593;51.426;7.030;2023-07-02T06:23:07;99870.09;;;19.57;61.43
32081;BME280;18593;51.426;7.030;2023-07-02T06:25:34;99873.09;;;19.50;62.28
32081;BME280;18593;51.426;7.030;2023-07-02T06:28:03;99871.13;;;19.61;61.76
32081;BME280;18593;51.426;7.030;2023-07-02T06:30:30;99864.31;;;19.69;61.43
32081;BME280;18593;51.426;7.030;2023-07-02T06:32:58;99865.84;;;19.75;61.39
32081;BME280;18593;51.426;7.030;2023-07-02T06:35:25;99874.72;;;19.80;61.10
32081;BME280;18593;51.426;7.030;2023-07-02T06:37:52;99880.66;;;19.83;60.18
32081;BME280;18593;51.426;7.030;2023-07-02T06:40:20;99881.47;;;19.83;59.97
32081;BME280;18593;51.426;7.030;2023-07-02T06:42:48;99870.72;;;19.78;59.91
32081;BME280;18593;51.426;7.030;2023-07-02T06:45:17;99883.88;;;19.55;57.52
32081;BME280;18593;51.426;7.030;2023-07-02T06:47:44;99873.56;;;19.63;57.60
32081;BME280;18593;51.426;7.030;2023-07-02T06:50:11;99879.38;;;19.75;56.46
32081;BME280;18593;51.426;7.030;2023-07-02T06:52:38;99877.56;;;19.94;57.19
32081;BME280;18593;51.426;7.030;2023-07-02T06:55:06;99887.06;;;20.16;57.30
32081;BME280;18593;51.426;7.030;2023-07-02T06:57:33;99889.19;;;20.19;52.04
32081;BME280;18593;51.426;7.030;2023-07-02T07:00:00;99896.63;;;20.32;54.24
32081;BME280;18593;51.426;7.030;2023-07-02T07:02:31;99894.66;;;20.38;51.74
32081;BME280;18593;51.426;7.030;2023-07-02T07:04:58;99894.72;;;20.56;52.58
32081;BME280;18593;51.426;7.030;2023-07-02T07:07:25;99889.72;;;20.64;49.52
32081;BME280;18593;51.426;7.030;2023-07-02T07:09:53;99888.19;;;20.57;50.95
32081;BME280;18593;51.426;7.030;2023-07-02T07:12:20;99897.91;;;20.58;50.42
32081;BME280;18593;51.426;7.030;2023-07-02T07:14:48;99903.50;;;20.67;51.60
32081;BME280;18593;51.426;7.030;2023-07-02T07:17:15;99900.06;;;20.80;52.08
32081;BME280;18593;51.426;7.030;2023-07-02T07:19:43;99898.81;;;20.73;50.78
32081;BME280;18593;51.426;7.030;2023-07-02T07:22:11;99907.31;;;20.66;48.85
32081;BME280;18593;51.426;7.030;2023-07-02T07:24:38;99897.28;;;20.67;51.50
32081;BME280;18593;51.426;7.030;2023-07-02T07:27:05;99907.53;;;20.70;47.80
32081;BME280;18593;51.426;7.030;2023-07-02T07:29:33;99904.50;;;20.52;49.24
32081;BME280;18593;51.426;7.030;2023-07-02T07:32:00;99909.50;;;20.64;49.92
32081;BME280;18593;51.426;7.030;2023-07-02T07:34:27;99912.44;;;20.68;50.09
32081;BME280;18593;51.426;7.030;2023-07-02T07:36:56;99915.38;;;20.71;50.73
32081;BME280;18593;51.426;7.030;2023-07-02T07:39:23;99913.16;;;20.73;50.19
32081;BME280;18593;51.426;7.030;2023-07-02T07:41:50;99926.94;;;20.77;49.46
32081;BME280;18593;51.426;7.030;2023-07-02T07:44:17;99917.28;;;20.71;49.94
32081;BME280;18593;51.426;7.030;2023-07-02T07:46:44;99929.94;;;20.56;49.23
32081;BME280;18593;51.426;7.030;2023-07-02T07:49:13;99918.28;;;20.56;50.06
32081;BME280;18593;51.426;7.030;2023-07-02T07:51:40;99916.31;;;20.62;50.40
32081;BME280;18593;51.426;7.030;2023-07-02T07:54:09;99916.38;;;20.56;51.12
32081;BME280;18593;51.426;7.030;2023-07-02T07:56:36;99923.63;;;20.37;49.02
32081;BME280;18593;51.426;7.030;2023-07-02T07:59:03;99923.22;;;20.25;50.22
32081;BME280;18593;51.426;7.030;2023-07-02T08:01:30;99934.06;;;20.25;51.70
32081;BME280;18593;51.426;7.030;2023-07-02T08:03:58;99935.44;;;19.98;48.02
32081;BME280;18593;51.426;7.030;2023-07-02T08:06:25;99939.97;;;19.79;47.12
32081;BME280;18593;51.426;7.030;2023-07-02T08:08:53;99940.22;;;19.83;48.76
32081;BME280;18593;51.426;7.030;2023-07-02T08:11:21;99944.19;;;19.90;46.98
32081;BME280;18593;51.426;7.030;2023-07-02T08:13:48;99941.22;;;19.92;47.70
32081;BME280;18593;51.426;7.030;2023-07-02T08:16:16;99941.91;;;20.02;47.73
32081;BME280;18593;51.426;7.030;2023-07-02T08:18:43;99941.78;;;20.13;48.88
32081;BME280;18593;51.426;7.030;2023-07-02T08:21:10;99938.53;;;20.16;48.54
32081;BME280;18593;51.426;7.030;2023-07-02T08:23:37;99958.91;;;20.08;47.88
32081;BME280;18593;51.426;7.030;2023-07-02T08:26:04;99952.06;;;20.16;48.29
32081;BME280;18593;51.426;7.030;2023-07-02T08:28:33;99953.06;;;20.20;47.09
32081;BME280;18593;51.426;7.030;2023-07-02T08:31:00;99954.06;;;20.29;46.51
32081;BME280;18593;51.426;7.030;2023-07-02T08:33:27;99958.00;;;20.42;46.90
32081;BME280;18593;51.426;7.030;2023-07-02T08:35:54;99965.63;;;20.35;47.76
32081;BME280;18593;51.426;7.030;2023-07-02T08:38:23;99963.34;;;20.23;44.00
32081;BME280;18593;51.426;7.030;2023-07-02T08:40:50;99956.44;;;20.12;45.71
32081;BME280;18593;51.426;7.030;2023-07-02T08:43:18;99965.75;;;20.24;45.32
32081;BME280;18593;51.426;7.030;2023-07-02T08:45:46;99959.47;;;20.29;45.81
32081;BME280;18593;51.426;7.030;2023-07-02T08:48:15;99965.56;;;20.40;46.31
32081;BME280;18593;51.426;7.030;2023-07-02T08:50:48;99964.84;;;20.58;44.92
32081;BME280;18593;51.426;7.030;2023-07-02T08:53:16;99969.72;;;20.61;45.75
32081;BME280;18593;51.426;7.030;2023-07-02T08:55:43;99968.41;;;20.77;47.21
32081;BME280;18593;51.426;7.030;2023-07-02T08:58:10;99965.59;;;20.64;42.36
32081;BME280;18593;51.426;7.030;2023-07-02T09:00:37;99970.50;;;20.62;44.92
32081;BME280;18593;51.426;7.030;2023-07-02T09:03:14;99968.84;;;20.66;45.65
32081;BME280;18593;51.426;7.030;2023-07-02T09:05:50;99973.47;;;20.65;45.68
32081;BME280;18593;51.426;7.030;2023-07-02T09:08:25;99978.81;;;20.70;46.03
32081;BME280;18593;51.426;7.030;2023-07-02T09:10:52;99971.31;;;20.62;45.70
32081;BME280;18593;51.426;7.030;2023-07-02T09:13:19;99975.47;;;20.54;45.40
32081;BME280;18593;51.426;7.030;2023-07-02T09:15:46;99980.97;;;20.44;44.10
32081;BME280;18593;51.426;7.030;2023-07-02T09:18:20;99977.72;;;20.47;45.04
32081;BME280;18593;51.426;7.030;2023-07-02T09:20:50;99981.25;;;20.48;45.23
32081;BME280;18593;51.426;7.030;2023-07-02T09:23:18;99982.59;;;20.45;43.43
32081;BME280;18593;51.426;7.030;2023-07-02T09:25:45;99980.88;;;20.54;45.32
32081;BME280;18593;51.426;7.030;2023-07-02T09:28:18;99979.94;;;20.64;43.23
32081;BME280;18593;51.426;7.030;2023-07-02T09:30:54;99970.84;;;20.79;45.78
32081;BME280;18593;51.426;7.030;2023-07-02T09:33:23;99975.31;;;20.89;45.56
32081;BME280;18593;51.426;7.030;2023-07-02T09:35:51;99971.06;;;21.01;46.86
32081;BME280;18593;51.426;7.030;2023-07-02T09:38:19;99969.09;;;21.07;45.44
32081;BME280;18593;51.426;7.030;2023-07-02T09:40:49;99973.53;;;20.98;43.02
32081;BME280;18593;51.426;7.030;2023-07-02T09:43:17;99972.59;;;21.07;44.82
32081;BME280;18593;51.426;7.030;2023-07-02T09:45:46;99969.38;;;21.05;44.48
32081;BME280;18593;51.426;7.030;2023-07-02T09:48:15;99962.34;;;21.04;45.41
32081;BME280;18593;51.426;7.030;2023-07-02T09:50:45;99973.75;;;20.82;45.59
32081;BME280;18593;51.426;7.030;2023-07-02T09:53:13;99983.34;;;20.75;44.44
32081;BME280;18593;51.426;7.030;2023-07-02T09:55:42;99974.38;;;20.55;44.74
32081;BME280;18593;51.426;7.030;2023-07-02T09:58:10;99980.66;;;20.51;44.22
32081;BME280;18593;51.426;7.030;2023-07-02T10:00:39;99979.06;;;20.50;45.14
32081;BME280;18593;51.426;7.030;2023-07-02T10:03:06;99979.00;;;20.55;45.32
32081;BME280;18593;51.426;7.030;2023-07-02T10:05:34;99982.84;;;20.49;44.01
32081;BME280;18593;51.426;7.030;2023-07-02T10:08:14;99991.97;;;20.29;44.33
32081;BME280;18593;51.426;7.030;2023-07-02T10:10:43;99995.38;;;20.16;44.97
32081;BME280;18593;51.426;7.030;2023-07-02T10:13:11;100003.16;;;19.93;45.89
32081;BME280;18593;51.426;7.030;2023-07-02T10:15:38;100003.69;;;19.95;45.72
32081;BME280;18593;51.426;7.030;2023-07-02T10:18:06;100005.22;;;20.06;46.53
32081;BME280;18593;51.426;7.030;2023-07-02T10:20:36;100014.66;;;20.09;46.41
32081;BME280;18593;51.426;7.030;2023-07-02T10:23:05;100010.69;;;20.01;46.03
32081;BME280;18593;51.426;7.030;2023-07-02T10:25:36;100007.19;;;19.96;46.84
32081;BME280;18593;51.426;7.030;2023-07-02T10:28:15;100011.59;;;19.92;46.67
32081;BME280;18593;51.426;7.030;2023-07-02T10:30:42;100009.88;;;20.01;46.43
32081;BME280;18593;51.426;7.030;2023-07-02T10:33:11;100014.94;;;20.08;45.61
32081;BME280;18593;51.426;7.030;2023-07-02T10:35:40;100013.28;;;20.12;46.99
32081;BME280;18593;51.426;7.030;2023-07-02T10:38:14;100011.28;;;20.22;45.91
32081;BME280;18593;51.426;7.030;2023-07-02T10:40:44;100011.97;;;20.33;45.33
32081;BME280;18593;51.426;7.030;2023-07-02T10:43:11;100011.13;;;20.38;43.61
32081;BME280;18593;51.426;7.030;2023-07-02T10:45:38;99996.97;;;20.46;43.51
32081;BME280;18593;51.426;7.030;2023-07-02T10:48:09;100003.25;;;20.65;44.44
32081;BME280;18593;51.426;7.030;2023-07-02T10:50:36;99997.41;;;20.77;43.61
32081;BME280;18593;51.426;7.030;2023-07-02T10:53:04;99997.22;;;20.92;44.64
32081;BME280;18593;51.426;7.030;2023-07-02T10:55:31;100000.78;;;20.88;42.66
32081;BME280;18593;51.426;7.030;2023-07-02T10:58:10;100004.31;;;20.69;42.05
32081;BME280;18593;51.426;7.030;2023-07-02T11:00:46;99999.44;;;20.66;44.04
32081;BME280;18593;51.426;7.030;2023-07-02T11:03:18;99999.69;;;20.70;43.90
32081;BME280;18593;51.426;7.030;2023-07-02T11:05:46;99992.63;;;20.69;43.86
32081;BME280;18593;51.426;7.030;2023-07-02T11:08:14;99996.63;;;20.76;42.91
32081;BME280;18593;51.426;7.030;2023-07-02T11:10:42;100000.22;;;20.91;43.17
32081;BME280;18593;51.426;7.030;2023-07-02T11:13:14;100001.19;;;21.00;43.95
32081;BME280;18593;51.426;7.030;2023-07-02T11:15:42;100000.22;;;20.91;42.31
32081;BME280;18593;51.426;7.030;2023-07-02T11:18:12;100008.78;;;20.79;42.55
32081;BME280;18593;51.426;7.030;2023-07-02T11:20:41;100016.03;;;20.83;44.39
32081;BME280;18593;51.426;7.030;2023-07-02T11:23:18;100012.09;;;20.95;46.77
32081;BME280;18593;51.426;7.030;2023-07-02T11:25:55;100010.94;;;21.01;45.64
32081;BME280;18593;51.426;7.030;2023-07-02T11:28:26;100018.75;;;21.02;45.18
32081;BME280;18593;51.426;7.030;2023-07-02T11:30:53;100016.34;;;21.01;43.95
32081;BME280;18593;51.426;7.030;2023-07-02T11:33:32;100021.28;;;20.99;44.11
32081;BME280;18593;51.426;7.030;2023-07-02T11:35:59;100014.22;;;20.98;43.04
32081;BME280;18593;51.426;7.030;2023-07-02T11:38:27;100012.69;;;20.92;42.09
32081;BME280;18593;51.426;7.030;2023-07-02T11:40:54;100003.50;;;20.88;41.83
32081;BME280;18593;51.426;7.030;2023-07-02T11:43:21;100012.19;;;20.90;45.16
32081;BME280;18593;51.426;7.030;2023-07-02T11:45:49;100017.88;;;20.88;44.17
32081;BME280;18593;51.426;7.030;2023-07-02T11:48:17;100010.84;;;20.87;43.45
32081;BME280;18593;51.426;7.030;2023-07-02T11:50:44;100013.78;;;20.91;43.94
32081;BME280;18593;51.426;7.030;2023-07-02T11:53:11;100000.97;;;20.96;46.01
32081;BME280;18593;51.426;7.030;2023-07-02T11:55:38;100007.91;;;21.02;43.22
32081;BME280;18593;51.426;7.030;2023-07-02T11:58:06;100007.19;;;21.16;45.28
32081;BME280;18593;51.426;7.030;2023-07-02T12:00:33;100015.41;;;21.29;43.07
32081;BME280;18593;51.426;7.030;2023-07-02T12:03:01;99993.09;;;21.38;42.75
32081;BME280;18593;51.426;7.030;2023-07-02T12:05:29;100000.53;;;21.46;44.43
32081;BME280;18593;51.426;7.030;2023-07-02T12:07:56;100015.53;;;21.43;41.78
32081;BME280;18593;51.426;7.030;2023-07-02T12:10:23;100007.06;;;21.26;39.94
32081;BME280;18593;51.426;7.030;2023-07-02T12:12:50;100004.19;;;21.17;40.14
32081;BME280;18593;51.426;7.030;2023-07-02T12:15:17;100015.34;;;21.16;40.28
32081;BME280;18593;51.426;7.030;2023-07-02T12:17:44;100020.50;;;21.36;43.09
32081;BME280;18593;51.426;7.030;2023-07-02T12:20:13;100015.16;;;21.31;40.67
32081;BME280;18593;51.426;7.030;2023-07-02T12:22:40;100022.28;;;21.22;40.79
32081;BME280;18593;51.426;7.030;2023-07-02T12:25:08;100026.19;;;21.16;41.60
32081;BME280;18593;51.426;7.030;2023-07-02T12:27:35;100022.44;;;21.12;41.21
32081;BME280;18593;51.426;7.030;2023-07-02T12:30:04;100025.22;;;21.06;40.82
32081;BME280;18593;51.426;7.030;2023-07-02T12:32:31;100019.47;;;21.13;41.54
32081;BME280;18593;51.426;7.030;2023-07-02T12:34:58;100030.44;;;21.22;41.83
32081;BME280;18593;51.426;7.030;2023-07-02T12:37:27;100025.75;;;21.08;40.38
32081;BME280;18593;51.426;7.030;2023-07-02T12:39:54;100030.50;;;21.17;42.02
32081;BME280;18593;51.426;7.030;2023-07-02T12:42:21;100027.38;;;21.28;42.84
32081;BME280;18593;51.426;7.030;2023-07-02T12:44:48;100020.94;;;21.43;44.28
32081;BME280;18593;51.426;7.030;2023-07-02T12:47:16;100025.03;;;21.41;42.32
32081;BME280;18593;51.426;7.030;2023-07-02T12:49:43;100027.38;;;21.28;41.26
32081;BME280;18593;51.426;7.030;2023-07-02T12:52:10;100028.19;;;21.29;41.20
32081;BME280;18593;51.426;7.030;2023-07-02T12:54:39;100026.94;;;21.40;43.61
32081;BME280;18593;51.426;7.030;2023-07-02T12:57:06;100019.47;;;21.51;42.81
32081;BME280;18593;51.426;7.030;2023-07-02T12:59:33;100021.91;;;21.52;44.16
32081;BME280;18593;51.426;7.030;2023-07-02T13:02:01;100026.16;;;21.40;41.55